バンコク/スワンナプーム の空港の天気 - METARとTAF

スワンナプーム国際空港 ( VTBS / BKK ) - タイ サムットプラーカーン県 (バンコク近郊)
飛行場実況気象(Metar)
観測時間01/22 01:00 ICT (01/21 18:00 UTC)
風向・風速南 3m/s
視程4000m
天気現象もや
なし
気温26℃
湿度79%
気圧1009hPa
METARVTBS 211800Z 18005KT 4000 BR NSC 26/22 Q1009 NOSIG
過去の天気等 Google飛行場航空写真 Wunderground天気予報

過去48時間のMETAR

飛行場予報(TAF)
発表時間: 1/22 00:00 ICT (1/21 17:00 UTC)
予報対象時間: 22日1時 ICT ~ 23日7時 ICT
風向・風速北西 2m/s
視程7,000m
少しの雲 雲底高度 1,220m
22日6時 ICT ~ 22日8時 ICT に徐々に
風向・風速北北東 3m/s
視程3,000m
天気現象もや
22日10時 ICT ~ 22日12時 ICT に徐々に
風向・風速東 4m/s
視程8,000m
天気現象運行に影響にある天気現象が終了
22日19時 ICT ~ 22日21時 ICT に徐々に
風向・風速南南西 3m/s
視程10km以上
TAF VTBS 211700Z 2118/2224 32003KT 7000 FEW040
BECMG 2123/2201 02005KT 3000 BR
BECMG 2203/2205 08008KT 8000 NSW
BECMG 2212/2214 20005KT 9999